Time;durP1;ratioP1;P1;durP2;ratioP2;P2;SDS_P1;SDS_P2;PMS_P1;PMS_P2;Temp;Humidity;BMP_temperature;BMP_pressure;BME280_temperature;BME280_humidity;BME280_pressure;Samples;Min_cycle;Max_cycle;Signal;HPM_P1;HPM_P2
2023/03/09 00:02:06;;;;;;;1.33;1.00;;;8.60;99.90;;;;;;5053048;28;20052;-39
2023/03/09 00:04:32;;;;;;;1.23;0.63;;;8.60;99.90;;;;;;5053161;28;20075;-41
2023/03/09 00:06:58;;;;;;;0.82;0.70;;;8.60;99.90;;;;;;5052769;28;20028;-35
2023/03/09 00:09:24;;;;;;;2.17;0.75;;;8.60;99.90;;;;;;5053236;28;20108;-35
2023/03/09 00:11:50;;;;;;;1.48;0.82;;;8.70;99.90;;;;;;5052963;28;20096;-35
2023/03/09 00:14:18;;;;;;;0.98;0.70;;;8.60;99.90;;;;;;5053029;28;20078;-43
2023/03/09 00:16:44;;;;;;;1.67;0.90;;;8.60;99.90;;;;;;5053617;28;20043;-35
2023/03/09 00:19:09;;;;;;;1.98;0.93;;;8.60;99.90;;;;;;5052934;28;20028;-37
2023/03/09 00:21:40;;;;;;;0.90;0.80;;;8.60;99.90;;;;;;5052556;28;20021;-35
2023/03/09 00:24:08;;;;;;;2.00;0.85;;;8.60;99.90;;;;;;5052790;28;20025;-35
2023/03/09 00:26:38;;;;;;;1.08;0.63;;;8.60;99.90;;;;;;5052698;28;20043;-38
2023/03/09 00:29:05;;;;;;;1.23;0.70;;;8.70;99.90;;;;;;5053080;28;20058;-35
2023/03/09 00:31:31;;;;;;;2.13;1.15;;;8.70;99.90;;;;;;5052643;28;20028;-43
2023/03/09 00:33:56;;;;;;;1.63;0.73;;;8.70;99.90;;;;;;5053032;28;20033;-41
2023/03/09 00:36:22;;;;;;;1.88;0.90;;;8.70;99.90;;;;;;5052407;28;20391;-38
2023/03/09 00:38:53;;;;;;;1.08;0.68;;;8.70;99.90;;;;;;5052501;28;20025;-37
2023/03/09 00:41:19;;;;;;;1.52;0.90;;;8.60;99.90;;;;;;5052583;28;20024;-41
2023/03/09 00:43:45;;;;;;;2.42;0.80;;;8.70;99.90;;;;;;5052375;28;20100;-44
2023/03/09 00:46:11;;;;;;;1.30;0.70;;;8.70;99.90;;;;;;5051998;28;20025;-35
2023/03/09 00:48:37;;;;;;;1.65;0.90;;;8.70;99.90;;;;;;5052652;28;20078;-35
2023/03/09 00:51:03;;;;;;;1.10;0.90;;;8.70;99.90;;;;;;5053346;28;20028;-35
2023/03/09 00:53:29;;;;;;;1.15;0.63;;;8.70;99.90;;;;;;5054043;28;20116;-35
2023/03/09 00:55:55;;;;;;;1.63;0.77;;;8.60;99.90;;;;;;5053240;28;20119;-36
2023/03/09 00:58:20;;;;;;;1.60;0.70;;;8.60;99.90;;;;;;5054157;28;20103;-35
2023/03/09 01:00:46;;;;;;;1.15;0.65;;;8.60;99.90;;;;;;5052424;28;20064;-35
2023/03/09 01:03:12;;;;;;;1.13;0.63;;;8.60;99.90;;;;;;5051928;28;20097;-35
2023/03/09 01:05:38;;;;;;;1.08;0.77;;;8.60;99.90;;;;;;5051909;28;20017;-38
2023/03/09 01:08:04;;;;;;;1.70;0.70;;;8.60;99.90;;;;;;5051783;28;20029;-38
2023/03/09 01:10:29;;;;;;;0.82;0.50;;;8.70;99.90;;;;;;5051902;28;20033;-35
2023/03/09 01:12:55;;;;;;;0.80;0.70;;;8.60;99.90;;;;;;5051860;28;20104;-35
2023/03/09 01:15:21;;;;;;;1.38;0.80;;;8.60;99.90;;;;;;5051836;28;20310;-38
2023/03/09 01:17:49;;;;;;;1.23;0.65;;;8.60;99.90;;;;;;5051882;28;20025;-38
2023/03/09 01:20:15;;;;;;;1.75;0.73;;;8.60;99.90;;;;;;5051690;28;20102;-38
2023/03/09 01:22:41;;;;;;;1.30;0.70;;;8.60;99.90;;;;;;5051679;28;20526;-38
2023/03/09 01:25:07;;;;;;;2.35;0.70;;;8.60;99.90;;;;;;5051707;28;20025;-38
2023/03/09 01:27:33;;;;;;;1.33;0.60;;;8.60;99.90;;;;;;5051480;28;20021;-40
2023/03/09 01:29:58;;;;;;;1.00;0.60;;;8.60;99.90;;;;;;5051607;28;20025;-40
2023/03/09 01:32:25;;;;;;;1.52;0.65;;;8.60;99.90;;;;;;5050119;28;20032;-37
2023/03/09 01:34:51;;;;;;;1.52;0.70;;;8.60;99.90;;;;;;5051446;28;20144;-35
2023/03/09 01:37:17;;;;;;;1.15;0.60;;;8.60;99.90;;;;;;5051278;28;20068;-35
2023/03/09 01:39:42;;;;;;;0.82;0.60;;;8.60;99.90;;;;;;5051424;28;20099;-36
2023/03/09 01:42:09;;;;;;;1.30;0.52;;;8.60;99.90;;;;;;5051184;28;20025;-39
2023/03/09 01:44:35;;;;;;;1.23;0.68;;;8.60;99.90;;;;;;5051367;28;20495;-36
2023/03/09 01:47:00;;;;;;;1.30;0.70;;;8.60;99.90;;;;;;5050850;28;20111;-36
2023/03/09 01:49:30;;;;;;;1.02;0.57;;;8.60;99.90;;;;;;5051360;28;20502;-36
2023/03/09 01:52:20;;;;;;;0.90;0.57;;;8.60;99.90;;;;;;5051101;28;20020;-37
2023/03/09 01:55:05;;;;;;;1.27;0.52;;;8.60;99.90;;;;;;5051290;28;20025;-35
2023/03/09 01:57:57;;;;;;;1.25;0.47;;;8.60;99.90;;;;;;5050907;28;20032;-35
2023/03/09 02:00:24;;;;;;;0.80;0.60;;;8.60;99.90;;;;;;5051009;28;20037;-35
2023/03/09 02:02:55;;;;;;;0.68;0.60;;;8.60;99.90;;;;;;5051156;28;20108;-35
2023/03/09 02:05:31;;;;;;;0.43;0.43;;;8.60;99.90;;;;;;5051099;28;20491;-38
2023/03/09 02:07:58;;;;;;;0.50;0.50;;;8.60;99.90;;;;;;5050976;28;20624;-37
2023/03/09 02:10:36;;;;;;;0.73;0.52;;;8.60;99.90;;;;;;5051114;28;20027;-39
2023/03/09 02:13:06;;;;;;;0.93;0.50;;;8.60;99.90;;;;;;5051064;28;20074;-40
2023/03/09 02:15:32;;;;;;;0.88;0.60;;;8.60;99.90;;;;;;5051249;28;20032;-34
2023/03/09 02:17:58;;;;;;;0.70;0.50;;;8.60;99.90;;;;;;5050834;28;20021;-36
2023/03/09 02:20:42;;;;;;;1.40;0.57;;;8.60;99.90;;;;;;5050944;28;20021;-38
2023/03/09 02:23:33;;;;;;;1.50;0.70;;;8.60;99.90;;;;;;5051034;28;20111;-36
2023/03/09 02:26:26;;;;;;;0.93;0.70;;;8.60;99.90;;;;;;5050457;28;20040;-36
2023/03/09 02:28:52;;;;;;;0.80;0.50;;;8.60;99.90;;;;;;5051600;28;20291;-35
2023/03/09 02:31:19;;;;;;;0.85;0.47;;;8.60;99.90;;;;;;5051120;28;20033;-35
2023/03/09 02:33:44;;;;;;;0.65;0.50;;;8.60;99.90;;;;;;5050673;28;20104;-36
2023/03/09 02:36:10;;;;;;;1.00;0.55;;;8.60;99.90;;;;;;5050585;28;20538;-36
2023/03/09 02:38:36;;;;;;;1.02;0.50;;;8.60;99.90;;;;;;5051044;28;20116;-35
2023/03/09 02:41:04;;;;;;;1.00;0.50;;;8.60;99.90;;;;;;5050740;28;20035;-35
2023/03/09 02:43:36;;;;;;;2.03;0.40;;;8.60;99.90;;;;;;5049438;28;20483;-36
2023/03/09 02:46:02;;;;;;;0.68;0.50;;;8.60;99.90;;;;;;5050318;28;20483;-36
2023/03/09 02:48:27;;;;;;;0.80;0.40;;;8.60;99.90;;;;;;5050824;28;20028;-36
2023/03/09 02:50:53;;;;;;;1.23;0.60;;;8.60;99.90;;;;;;5050647;28;20036;-37
2023/03/09 02:53:18;;;;;;;0.93;0.50;;;8.60;99.90;;;;;;5050640;28;20108;-35
2023/03/09 02:55:44;;;;;;;0.40;0.35;;;8.60;99.90;;;;;;5050575;28;20036;-36
2023/03/09 02:58:10;;;;;;;0.85;0.57;;;8.60;99.90;;;;;;5050569;28;20068;-36
2023/03/09 03:00:35;;;;;;;3.25;0.60;;;8.60;99.90;;;;;;5050571;28;20037;-36
2023/03/09 03:03:01;;;;;;;2.38;0.55;;;8.60;99.90;;;;;;5050525;28;20481;-39
2023/03/09 03:05:27;;;;;;;0.50;0.50;;;8.60;99.90;;;;;;5050465;28;20040;-35
2023/03/09 03:07:52;;;;;;;1.17;0.38;;;8.60;99.90;;;;;;5050900;28;20085;-35
2023/03/09 03:10:18;;;;;;;0.73;0.43;;;8.60;99.90;;;;;;5054732;28;20017;-35
2023/03/09 03:12:44;;;;;;;1.75;0.60;;;8.60;99.90;;;;;;5053935;28;20092;-39
2023/03/09 03:15:10;;;;;;;1.20;0.43;;;8.60;99.90;;;;;;5054108;28;20436;-37
2023/03/09 03:17:36;;;;;;;0.43;0.32;;;8.60;99.90;;;;;;5053843;28;20021;-37
2023/03/09 03:20:05;;;;;;;0.85;0.40;;;8.60;99.90;;;;;;5053977;28;20472;-42
2023/03/09 03:22:30;;;;;;;0.50;0.40;;;8.60;99.90;;;;;;5053856;28;20029;-40
2023/03/09 03:24:56;;;;;;;1.15;0.50;;;8.60;99.90;;;;;;5053958;28;20394;-38
2023/03/09 03:27:22;;;;;;;1.42;0.50;;;8.60;99.90;;;;;;5053600;28;20486;-35
2023/03/09 03:29:51;;;;;;;1.48;0.50;;;8.60;99.90;;;;;;5053789;28;20025;-40
2023/03/09 03:32:17;;;;;;;0.57;0.40;;;8.60;99.90;;;;;;5053855;28;20066;-38
2023/03/09 03:34:42;;;;;;;0.75;0.50;;;8.60;99.90;;;;;;5053774;28;20108;-38
2023/03/09 03:37:08;;;;;;;0.60;0.50;;;8.60;99.90;;;;;;5053522;28;20021;-35
2023/03/09 03:39:33;;;;;;;0.40;0.40;;;8.60;99.90;;;;;;5053727;28;20609;-35
2023/03/09 03:41:59;;;;;;;0.60;0.50;;;8.60;99.90;;;;;;5053576;28;20047;-36
2023/03/09 03:44:25;;;;;;;0.63;0.40;;;8.60;99.90;;;;;;5054259;28;20100;-35
2023/03/09 03:46:50;;;;;;;1.00;0.50;;;8.60;99.90;;;;;;5053783;28;20405;-40
2023/03/09 03:49:16;;;;;;;0.70;0.40;;;8.60;99.90;;;;;;5055364;28;20103;-41
2023/03/09 03:51:41;;;;;;;1.45;0.50;;;8.60;99.90;;;;;;5055050;28;20376;-38
2023/03/09 03:54:07;;;;;;;0.52;0.40;;;8.60;99.90;;;;;;5053895;28;20039;-37
2023/03/09 03:56:34;;;;;;;1.00;0.50;;;8.60;99.90;;;;;;5052933;28;20082;-39
2023/03/09 03:58:59;;;;;;;0.30;0.30;;;8.60;99.90;;;;;;5053396;28;20033;-37
2023/03/09 04:01:25;;;;;;;1.75;0.50;;;8.60;99.90;;;;;;5053065;28;20033;-40
2023/03/09 04:03:50;;;;;;;1.13;0.50;;;8.60;99.90;;;;;;5053200;28;20071;-38
2023/03/09 04:06:16;;;;;;;0.75;0.55;;;8.60;99.90;;;;;;5052868;28;20028;-35
2023/03/09 04:08:42;;;;;;;1.23;0.65;;;8.60;99.90;;;;;;5053138;28;20025;-36
2023/03/09 04:11:08;;;;;;;0.63;0.50;;;8.60;99.90;;;;;;5052959;28;20025;-35
2023/03/09 04:13:34;;;;;;;2.10;0.60;;;8.60;99.90;;;;;;5053905;28;20028;-36
2023/03/09 04:16:01;;;;;;;1.15;0.55;;;8.60;99.90;;;;;;5052884;28;20033;-38
2023/03/09 04:18:26;;;;;;;3.05;0.80;;;8.60;99.90;;;;;;5053937;28;20020;-35
2023/03/09 04:20:52;;;;;;;1.33;0.50;;;8.60;99.90;;;;;;5052906;28;20025;-35
2023/03/09 04:23:18;;;;;;;2.95;0.70;;;8.60;99.90;;;;;;5052803;28;20211;-38
2023/03/09 04:25:43;;;;;;;3.67;0.70;;;8.60;99.90;;;;;;5052665;28;20025;-36
2023/03/09 04:28:09;;;;;;;3.38;0.77;;;8.60;99.90;;;;;;5052903;28;20025;-36
2023/03/09 04:30:34;;;;;;;3.55;0.70;;;8.60;99.90;;;;;;5052810;28;20380;-39
2023/03/09 04:33:00;;;;;;;0.95;0.50;;;8.60;99.90;;;;;;5052561;28;20080;-38
2023/03/09 04:35:25;;;;;;;3.53;0.63;;;8.60;99.90;;;;;;5052532;28;20029;-40
2023/03/09 04:37:51;;;;;;;2.13;0.60;;;8.60;99.90;;;;;;5051008;28;20116;-39
2023/03/09 04:40:17;;;;;;;3.97;1.00;;;8.60;99.90;;;;;;5052332;28;20021;-40
2023/03/09 04:42:43;;;;;;;2.67;0.70;;;8.60;99.90;;;;;;5052378;28;20048;-39
2023/03/09 04:45:09;;;;;;;2.42;0.70;;;8.60;99.90;;;;;;5052463;28;20037;-36
2023/03/09 04:47:35;;;;;;;3.33;0.75;;;8.60;99.90;;;;;;5050825;28;20103;-39
2023/03/09 04:50:01;;;;;;;2.85;1.00;;;8.60;99.90;;;;;;5052305;28;20104;-38
2023/03/09 04:52:26;;;;;;;2.45;0.70;;;8.60;99.90;;;;;;5052255;28;20447;-39
2023/03/09 04:54:54;;;;;;;3.78;1.02;;;8.60;99.90;;;;;;5052087;28;20029;-39
2023/03/09 04:57:21;;;;;;;4.28;1.20;;;8.50;99.90;;;;;;5051950;28;20107;-38
2023/03/09 04:59:47;;;;;;;2.33;0.90;;;8.60;99.90;;;;;;5052202;28;20021;-38
2023/03/09 05:02:12;;;;;;;3.85;0.85;;;8.50;99.90;;;;;;5052015;28;20037;-40
2023/03/09 05:04:38;;;;;;;3.80;1.00;;;8.70;99.90;;;;;;5052013;28;20020;-39
2023/03/09 05:07:04;;;;;;;1.77;0.82;;;9.00;99.90;;;;;;5051770;28;20045;-39
2023/03/09 05:09:29;;;;;;;3.60;0.90;;;9.40;99.90;;;;;;5051790;28;20021;-40
2023/03/09 05:11:55;;;;;;;4.13;0.77;;;9.40;99.90;;;;;;5053646;28;20036;-35
2023/03/09 05:14:21;;;;;;;4.10;0.80;;;9.40;99.90;;;;;;5052189;28;20486;-35
2023/03/09 05:16:51;;;;;;;3.35;0.80;;;9.30;99.90;;;;;;5051680;28;20037;-36
2023/03/09 05:19:18;;;;;;;4.07;1.00;;;9.30;99.90;;;;;;5051723;28;20025;-36
2023/03/09 05:21:44;;;;;;;4.28;1.10;;;9.20;99.90;;;;;;5051741;28;20421;-38
2023/03/09 05:24:09;;;;;;;2.55;0.70;;;9.10;99.90;;;;;;5051647;28;20478;-35
2023/03/09 05:26:35;;;;;;;3.15;0.85;;;9.10;99.90;;;;;;5051437;28;20056;-42
2023/03/09 05:29:01;;;;;;;4.60;1.00;;;9.00;99.90;;;;;;5051882;28;20017;-38
2023/03/09 05:31:26;;;;;;;3.15;0.80;;;9.00;99.90;;;;;;5051068;28;20052;-39
2023/03/09 05:33:53;;;;;;;3.78;0.85;;;9.00;99.90;;;;;;5051481;28;20025;-35
2023/03/09 05:36:22;;;;;;;2.13;0.85;;;9.00;99.90;;;;;;5051787;28;20059;-35
2023/03/09 05:38:48;;;;;;;2.17;0.77;;;9.00;99.90;;;;;;5051388;28;20025;-39
2023/03/09 05:41:14;;;;;;;2.35;0.70;;;9.00;99.90;;;;;;5051438;28;20029;-41
2023/03/09 05:43:43;;;;;;;3.75;0.90;;;8.90;99.90;;;;;;5051253;28;20021;-40
2023/03/09 05:46:11;;;;;;;2.70;0.95;;;8.90;99.90;;;;;;5051529;28;20035;-38
2023/03/09 05:48:38;;;;;;;2.28;0.80;;;8.90;99.90;;;;;;5051339;28;20365;-35
2023/03/09 05:51:18;;;;;;;3.88;0.98;;;8.90;99.90;;;;;;5051568;28;20032;-42
2023/03/09 05:54:10;;;;;;;2.28;0.63;;;8.90;99.90;;;;;;5051564;28;20039;-36
2023/03/09 05:56:54;;;;;;;1.45;0.70;;;8.80;99.90;;;;;;5050993;28;20025;-38
2023/03/09 05:59:20;;;;;;;2.38;0.82;;;8.80;99.90;;;;;;5051271;28;20458;-38
2023/03/09 06:01:46;;;;;;;2.13;0.90;;;8.80;99.90;;;;;;5051415;28;20076;-38
2023/03/09 06:04:12;;;;;;;3.60;0.80;;;8.90;99.90;;;;;;5051156;28;20040;-35
2023/03/09 06:06:37;;;;;;;1.65;0.80;;;9.10;99.90;;;;;;5050939;28;20051;-35
2023/03/09 06:09:03;;;;;;;1.98;0.70;;;9.40;99.90;;;;;;5051184;28;20029;-35
2023/03/09 06:11:28;;;;;;;4.70;0.82;;;9.50;99.90;;;;;;5050990;28;20036;-36
2023/03/09 06:13:55;;;;;;;4.60;0.70;;;9.40;99.90;;;;;;5051234;28;20025;-40
2023/03/09 06:16:20;;;;;;;2.33;0.80;;;9.30;99.90;;;;;;5051105;28;20078;-41
2023/03/09 06:18:46;;;;;;;2.60;1.00;;;9.30;99.90;;;;;;5051238;28;20037;-35
2023/03/09 06:21:12;;;;;;;1.52;0.65;;;9.20;99.90;;;;;;5051239;28;20025;-41
2023/03/09 06:23:38;;;;;;;2.85;0.90;;;9.20;99.90;;;;;;5050054;28;20021;-35
2023/03/09 06:26:06;;;;;;;4.22;0.70;;;9.10;99.90;;;;;;5051473;28;20103;-42
2023/03/09 06:28:35;;;;;;;2.00;0.80;;;9.10;99.90;;;;;;5051116;28;20035;-40
2023/03/09 06:31:06;;;;;;;2.90;0.80;;;9.10;99.90;;;;;;5051586;28;20025;-44
2023/03/09 06:33:32;;;;;;;2.28;0.75;;;9.00;99.90;;;;;;5050986;28;20053;-41
2023/03/09 06:36:01;;;;;;;2.33;0.70;;;9.00;99.90;;;;;;5050975;28;20118;-43
2023/03/09 06:38:27;;;;;;;3.78;0.73;;;9.00;99.90;;;;;;5051210;28;20553;-35
2023/03/09 06:40:54;;;;;;;3.00;1.05;;;9.00;99.90;;;;;;5051009;28;20040;-35
2023/03/09 06:43:20;;;;;;;3.17;0.85;;;8.90;99.90;;;;;;5054545;28;20071;-36
2023/03/09 06:45:46;;;;;;;3.25;0.82;;;8.90;99.90;;;;;;5059738;28;20437;-41
2023/03/09 06:48:12;;;;;;;2.47;0.63;;;8.90;99.90;;;;;;5056673;28;20021;-35
2023/03/09 06:50:37;;;;;;;3.30;0.90;;;8.90;99.90;;;;;;5054708;28;20040;-36
2023/03/09 06:53:03;;;;;;;5.78;1.08;;;8.90;99.90;;;;;;5054549;28;20024;-39
2023/03/09 06:55:28;;;;;;;1.55;0.70;;;8.90;99.90;;;;;;5053285;28;20390;-39
2023/03/09 06:57:54;;;;;;;4.32;0.98;;;8.90;99.90;;;;;;5054672;28;20105;-35
2023/03/09 07:00:20;;;;;;;4.90;1.02;;;8.90;99.90;;;;;;5054511;28;20472;-41
2023/03/09 07:02:46;;;;;;;2.88;0.90;;;8.80;99.90;;;;;;5055252;28;20025;-35
2023/03/09 07:05:12;;;;;;;1.83;0.88;;;8.90;99.90;;;;;;5054701;28;20028;-35
2023/03/09 07:07:39;;;;;;;3.05;0.70;;;8.90;99.90;;;;;;5054121;28;20390;-35
2023/03/09 07:10:05;;;;;;;6.38;1.13;;;8.80;99.90;;;;;;5055164;28;20021;-35
2023/03/09 07:12:31;;;;;;;3.40;1.00;;;8.80;99.90;;;;;;5054502;28;20029;-38
2023/03/09 07:14:57;;;;;;;2.75;0.90;;;8.80;99.90;;;;;;5054194;28;20032;-35
2023/03/09 07:17:23;;;;;;;1.83;0.90;;;8.80;99.90;;;;;;5054261;28;20024;-36
2023/03/09 07:19:48;;;;;;;1.38;0.65;;;8.80;99.90;;;;;;5055364;28;20378;-39
2023/03/09 07:22:14;;;;;;;2.70;0.82;;;8.80;99.90;;;;;;5054280;28;20025;-38
2023/03/09 07:24:39;;;;;;;2.95;0.80;;;8.80;99.90;;;;;;5054720;28;20037;-35
2023/03/09 07:27:07;;;;;;;2.00;0.75;;;8.70;99.90;;;;;;5053678;28;20476;-38
2023/03/09 07:29:33;;;;;;;2.42;0.82;;;8.70;99.90;;;;;;5053956;28;20028;-40
2023/03/09 07:32:03;;;;;;;2.63;0.90;;;8.70;99.90;;;;;;5053060;28;20025;-35
2023/03/09 07:34:32;;;;;;;2.75;0.90;;;8.70;99.90;;;;;;5053820;28;20029;-35
2023/03/09 07:36:58;;;;;;;3.67;0.82;;;8.70;99.90;;;;;;5054158;28;20029;-38
2023/03/09 07:39:23;;;;;;;4.25;0.93;;;8.60;99.90;;;;;;5053679;28;20029;-35
2023/03/09 07:41:49;;;;;;;3.42;1.00;;;8.60;99.90;;;;;;5053440;28;20025;-41
2023/03/09 07:44:15;;;;;;;6.13;1.20;;;8.70;99.90;;;;;;5053676;28;20471;-41
2023/03/09 07:46:40;;;;;;;2.25;1.20;;;8.70;99.90;;;;;;5053282;28;20036;-40
2023/03/09 07:49:06;;;;;;;3.55;1.08;;;8.70;99.90;;;;;;5053480;28;20552;-38
2023/03/09 07:51:32;;;;;;;2.45;0.77;;;8.70;99.90;;;;;;5053392;28;20399;-40
2023/03/09 07:53:57;;;;;;;2.30;0.80;;;8.70;99.90;;;;;;5053190;28;20056;-35
2023/03/09 07:56:23;;;;;;;2.17;1.10;;;8.70;99.90;;;;;;5053116;28;20112;-39
2023/03/09 07:58:52;;;;;;;2.80;0.73;;;8.70;99.90;;;;;;5053287;28;20029;-37
2023/03/09 08:01:18;;;;;;;4.10;0.90;;;8.70;99.90;;;;;;5053100;28;20024;-35
2023/03/09 08:03:45;;;;;;;6.40;1.10;;;8.70;99.90;;;;;;5053154;28;20025;-35
2023/03/09 08:06:12;;;;;;;5.55;0.98;;;8.70;99.90;;;;;;5053211;28;20070;-42
2023/03/09 08:08:38;;;;;;;2.25;0.65;;;8.70;99.90;;;;;;5053094;28;20475;-38
2023/03/09 08:11:05;;;;;;;4.85;0.88;;;8.70;99.90;;;;;;5053082;28;20425;-35
2023/03/09 08:13:31;;;;;;;2.72;0.90;;;8.70;99.90;;;;;;5053960;28;20024;-35
2023/03/09 08:16:00;;;;;;;2.80;1.00;;;8.70;99.90;;;;;;5053355;28;20059;-35
2023/03/09 08:18:26;;;;;;;3.63;0.95;;;8.70;99.90;;;;;;5052990;28;20376;-35
2023/03/09 08:20:51;;;;;;;3.22;0.90;;;8.70;99.90;;;;;;5052943;28;20111;-38
2023/03/09 08:23:17;;;;;;;2.47;0.80;;;8.70;99.90;;;;;;5052803;28;20483;-39
2023/03/09 08:25:44;;;;;;;4.97;1.20;;;8.80;99.90;;;;;;5052836;28;20482;-35
2023/03/09 08:28:11;;;;;;;2.05;0.95;;;8.80;99.90;;;;;;5052678;28;20482;-38
2023/03/09 08:30:38;;;;;;;5.07;1.15;;;8.80;99.90;;;;;;5052856;28;20017;-43
2023/03/09 08:33:04;;;;;;;2.72;0.90;;;8.80;99.90;;;;;;5052645;28;20032;-40
2023/03/09 08:35:32;;;;;;;3.67;0.95;;;8.80;99.90;;;;;;5051343;28;20025;-42
2023/03/09 08:38:01;;;;;;;3.38;1.00;;;8.80;99.90;;;;;;5052336;28;20023;-35
2023/03/09 08:40:27;;;;;;;1.33;0.70;;;8.80;99.90;;;;;;5054115;28;20025;-35
2023/03/09 08:42:53;;;;;;;7.25;1.10;;;8.80;99.90;;;;;;5052921;28;20060;-35
2023/03/09 08:45:18;;;;;;;2.38;0.80;;;8.80;99.90;;;;;;5052426;28;20516;-37
2023/03/09 08:47:44;;;;;;;2.97;0.90;;;8.90;99.90;;;;;;5052175;28;20033;-39
2023/03/09 08:50:10;;;;;;;2.47;0.93;;;8.90;99.90;;;;;;5052841;28;20033;-39
2023/03/09 08:52:39;;;;;;;3.03;0.75;;;8.90;99.90;;;;;;5052304;28;20087;-35
2023/03/09 08:55:06;;;;;;;2.13;0.90;;;8.80;99.90;;;;;;5050908;28;20444;-41
2023/03/09 08:57:32;;;;;;;4.90;0.98;;;8.80;99.90;;;;;;5052141;28;20036;-35
2023/03/09 08:59:57;;;;;;;3.15;1.02;;;8.80;99.90;;;;;;5052621;28;20020;-35
2023/03/09 09:02:23;;;;;;;2.67;0.80;;;8.90;99.90;;;;;;5052512;28;20482;-37
2023/03/09 09:04:49;;;;;;;5.68;1.15;;;8.90;99.90;;;;;;5052497;28;20032;-38
2023/03/09 09:07:15;;;;;;;3.63;0.95;;;8.90;99.90;;;;;;5051350;28;20475;-39
2023/03/09 09:09:42;;;;;;;2.72;0.85;;;8.90;99.90;;;;;;5052038;28;20033;-36
2023/03/09 09:12:09;;;;;;;1.88;0.65;;;8.90;99.90;;;;;;5052237;28;20443;-35
2023/03/09 09:14:39;;;;;;;2.28;0.93;;;8.90;99.90;;;;;;5051946;28;20506;-41
2023/03/09 09:17:08;;;;;;;2.50;0.82;;;8.90;99.90;;;;;;5051647;28;20446;-38
2023/03/09 09:19:34;;;;;;;2.47;0.80;;;8.90;99.90;;;;;;5051844;28;20111;-38
2023/03/09 09:22:00;;;;;;;2.42;0.60;;;8.90;99.90;;;;;;5050426;28;20029;-41
2023/03/09 09:24:26;;;;;;;3.58;1.08;;;9.00;99.90;;;;;;5051969;28;20070;-38
2023/03/09 09:26:55;;;;;;;2.53;0.70;;;9.00;99.90;;;;;;5051478;28;20029;-35
2023/03/09 09:29:21;;;;;;;3.17;0.90;;;9.00;99.90;;;;;;5052119;28;20082;-35
2023/03/09 09:31:50;;;;;;;2.45;1.02;;;9.00;99.90;;;;;;5051606;28;20100;-35
2023/03/09 09:34:17;;;;;;;2.85;0.77;;;8.90;99.90;;;;;;5051664;28;20821;-35
2023/03/09 09:36:44;;;;;;;3.78;0.80;;;8.90;99.90;;;;;;5051498;28;20028;-35
2023/03/09 09:39:12;;;;;;;2.58;0.90;;;8.90;99.90;;;;;;5051643;28;20222;-35
2023/03/09 09:41:48;;;;;;;3.40;1.00;;;8.90;99.90;;;;;;5051536;28;20028;-34
2023/03/09 09:44:22;;;;;;;2.30;0.80;;;8.90;99.90;;;;;;5055502;28;20108;-35
2023/03/09 09:46:50;;;;;;;2.15;0.88;;;8.90;99.90;;;;;;5055713;28;20471;-35
2023/03/09 09:49:23;;;;;;;2.83;0.98;;;8.90;99.90;;;;;;5051657;28;20066;-35
2023/03/09 09:52:23;;;;;;;2.95;0.90;;;8.90;99.90;;;;;;5051486;28;20104;-35
2023/03/09 09:55:03;;;;;;;2.55;0.82;;;8.90;99.90;;;;;;5050272;28;20368;-35
2023/03/09 09:57:35;;;;;;;2.80;1.00;;;9.00;99.90;;;;;;5051242;28;20364;-35
2023/03/09 10:00:11;;;;;;;3.17;0.90;;;9.00;99.90;;;;;;5051163;28;20025;-35
2023/03/09 10:02:47;;;;;;;2.35;0.70;;;8.90;99.90;;;;;;5049752;28;20021;-35
2023/03/09 10:05:21;;;;;;;1.55;0.77;;;9.00;99.90;;;;;;5051084;28;20025;-35
2023/03/09 10:07:48;;;;;;;1.95;0.80;;;9.00;99.90;;;;;;5051099;28;20275;-35
2023/03/09 10:10:24;;;;;;;2.38;0.80;;;9.00;99.90;;;;;;5051098;28;20099;-36
2023/03/09 10:12:50;;;;;;;2.20;0.75;;;9.00;99.90;;;;;;5051409;28;20486;-35
2023/03/09 10:15:26;;;;;;;3.17;0.95;;;9.00;99.90;;;;;;5051169;28;20029;-36
2023/03/09 10:17:57;;;;;;;2.83;0.90;;;9.00;99.90;;;;;;5053079;28;20021;-35
2023/03/09 10:20:29;;;;;;;4.38;0.90;;;9.00;99.90;;;;;;5055222;28;20024;-35
2023/03/09 10:22:56;;;;;;;1.73;0.70;;;9.00;99.90;;;;;;5055121;28;20017;-35
2023/03/09 10:25:24;;;;;;;2.38;0.90;;;9.10;99.90;;;;;;5055543;28;20449;-38
2023/03/09 10:28:19;;;;;;;4.88;1.00;;;9.10;99.90;;;;;;5055980;28;20045;-35
2023/03/09 10:31:08;;;;;;;2.08;0.85;;;9.10;99.90;;;;;;5052707;28;20049;-35
2023/03/09 10:33:49;;;;;;;2.38;1.00;;;9.10;99.90;;;;;;5054844;28;20111;-35
2023/03/09 10:36:29;;;;;;;1.30;0.57;;;9.10;99.90;;;;;;5054786;28;20082;-36
2023/03/09 10:38:56;;;;;;;1.90;0.75;;;9.00;99.90;;;;;;5055053;28;20430;-37
2023/03/09 10:41:22;;;;;;;3.78;0.77;;;9.00;99.90;;;;;;5054687;28;20032;-35
2023/03/09 10:43:48;;;;;;;2.05;0.88;;;9.00;99.90;;;;;;5054700;28;20025;-35
2023/03/09 10:46:23;;;;;;;2.30;0.60;;;9.00;99.90;;;;;;5054110;28;20422;-35
2023/03/09 10:49:01;;;;;;;2.22;0.80;;;9.00;99.90;;;;;;5054686;28;20031;-35
2023/03/09 10:51:40;;;;;;;1.90;0.60;;;9.10;99.90;;;;;;5054552;28;20506;-35
2023/03/09 10:54:30;;;;;;;2.05;0.80;;;9.10;99.90;;;;;;5054430;28;20067;-35
2023/03/09 10:56:55;;;;;;;1.88;0.60;;;9.10;99.90;;;;;;5054255;28;20419;-35
2023/03/09 10:59:23;;;;;;;3.50;0.95;;;9.10;99.90;;;;;;5054741;28;20029;-37
2023/03/09 11:01:52;;;;;;;3.22;1.15;;;9.10;99.90;;;;;;5054219;28;20033;-35
2023/03/09 11:04:39;;;;;;;1.55;0.60;;;9.10;99.90;;;;;;5054328;28;20106;-37
2023/03/09 11:07:18;;;;;;;1.77;0.80;;;9.20;99.90;;;;;;5054187;28;20025;-35
2023/03/09 11:09:44;;;;;;;2.95;0.95;;;9.20;99.90;;;;;;5054353;28;20025;-39
2023/03/09 11:12:21;;;;;;;4.13;0.88;;;9.30;99.90;;;;;;5054177;28;20509;-39
2023/03/09 11:14:56;;;;;;;2.78;0.70;;;9.30;99.90;;;;;;5052849;28;20175;-39
2023/03/09 11:17:39;;;;;;;1.95;0.88;;;9.30;99.90;;;;;;5054039;28;20032;-40
2023/03/09 11:20:20;;;;;;;2.72;0.80;;;9.30;99.90;;;;;;5054652;28;20530;-37
2023/03/09 11:22:55;;;;;;;4.25;0.90;;;9.40;99.90;;;;;;5054449;28;20146;-43
2023/03/09 11:25:30;;;;;;;2.90;1.00;;;9.40;99.90;;;;;;5053885;28;20021;-39
2023/03/09 11:28:04;;;;;;;1.00;0.80;;;9.40;99.90;;;;;;5054085;28;20552;-39
2023/03/09 11:30:30;;;;;;;4.55;0.85;;;9.40;99.90;;;;;;5053224;28;20379;-41
2023/03/09 11:32:56;;;;;;;5.30;1.10;;;9.40;99.90;;;;;;5053753;28;20025;-42
2023/03/09 11:35:23;;;;;;;3.25;0.93;;;9.50;99.90;;;;;;5053664;28;20040;-43
2023/03/09 11:37:54;;;;;;;3.03;0.88;;;9.40;99.90;;;;;;5053696;28;20072;-41
2023/03/09 11:40:24;;;;;;;2.25;0.80;;;9.50;99.90;;;;;;5053835;28;20490;-35
2023/03/09 11:42:49;;;;;;;1.55;0.77;;;9.50;99.90;;;;;;5053559;28;20112;-35
2023/03/09 11:45:35;;;;;;;1.63;0.70;;;9.50;99.90;;;;;;5054002;28;20127;-40
2023/03/09 11:48:14;;;;;;;5.13;0.90;;;9.50;99.90;;;;;;5053368;28;20044;-34
2023/03/09 11:50:43;;;;;;;2.67;1.02;;;9.50;99.90;;;;;;5052458;28;20020;-39
2023/03/09 11:53:22;;;;;;;4.35;0.90;;;9.60;99.90;;;;;;5053462;28;20017;-42
2023/03/09 11:55:53;;;;;;;5.03;0.95;;;9.50;99.90;;;;;;5053277;28;20413;-41
2023/03/09 11:58:27;;;;;;;4.00;0.88;;;9.50;99.90;;;;;;5053742;28;20036;-41
2023/03/09 12:01:05;;;;;;;2.15;0.93;;;9.50;99.90;;;;;;5053208;28;20025;-43
2023/03/09 12:03:36;;;;;;;4.20;1.02;;;9.60;99.90;;;;;;5053295;28;20151;-34
2023/03/09 12:06:11;;;;;;;2.28;0.80;;;9.60;99.90;;;;;;5051826;28;20025;-37
2023/03/09 12:08:39;;;;;;;;;;;9.60;99.90;;;;;;5053525;28;20536;-39
2023/03/09 12:11:23;;;;;;;4.95;1.20;;;9.60;99.90;;;;;;5054295;28;19908;-35
2023/03/09 12:14:10;;;;;;;3.28;1.00;;;9.70;99.90;;;;;;5053311;28;20425;-41
2023/03/09 12:16:38;;;;;;;4.68;0.80;;;9.60;99.90;;;;;;5052900;28;20055;-43
2023/03/09 12:19:10;;;;;;;2.42;0.90;;;9.70;99.90;;;;;;5052997;28;20021;-37
2023/03/09 12:21:41;;;;;;;4.13;0.90;;;9.70;99.90;;;;;;5052817;28;20521;-35
2023/03/09 12:24:26;;;;;;;2.85;1.00;;;9.70;99.90;;;;;;5052955;28;20032;-35
2023/03/09 12:26:57;;;;;;;;;;;9.70;99.90;;;;;;5053206;28;20025;-35
2023/03/09 12:29:26;;;;;;;2.97;0.80;;;9.70;99.90;;;;;;5052903;28;19951;-44
2023/03/09 12:32:33;;;;;;;5.03;1.10;;;9.70;99.90;;;;;;5051526;28;20036;-34
2023/03/09 12:35:01;;;;;;;3.22;0.93;;;9.70;99.90;;;;;;5052175;28;20082;-36
2023/03/09 12:37:35;;;;;;;4.13;1.20;;;9.70;99.90;;;;;;5056216;28;20078;-37
2023/03/09 12:40:30;;;;;;;2.40;0.80;;;9.70;99.90;;;;;;5053854;28;20035;-39
2023/03/09 12:43:16;;;;;;;;;;;9.70;99.90;;;;;;5050872;28;20510;-39
2023/03/09 12:45:48;;;;;;;2.67;0.80;;;9.70;99.90;;;;;;5045779;28;19909;-40
2023/03/09 12:48:25;;;;;;;2.75;1.15;;;9.70;99.90;;;;;;5052629;28;20476;-38
2023/03/09 12:51:03;;;;;;;5.55;1.15;;;9.70;99.90;;;;;;5052338;28;20017;-35
2023/03/09 12:53:34;;;;;;;3.17;1.00;;;9.70;99.90;;;;;;5052654;28;20082;-40
2023/03/09 12:56:03;;;;;;;2.92;1.00;;;9.70;99.90;;;;;;5052073;28;20598;-41
2023/03/09 12:58:31;;;;;;;2.72;0.80;;;9.70;99.90;;;;;;5052164;28;20092;-35
2023/03/09 13:00:56;;;;;;;3.53;1.05;;;9.70;99.90;;;;;;5051917;28;20083;-39
2023/03/09 13:03:26;;;;;;;2.42;0.90;;;9.70;99.90;;;;;;5051998;28;20021;-35
2023/03/09 13:05:55;;;;;;;2.05;0.80;;;9.70;99.90;;;;;;5051941;28;20033;-35
2023/03/09 13:08:32;;;;;;;4.15;1.15;;;9.70;99.90;;;;;;5051991;28;20029;-38